Catalina, Arizona
Current Conditions -  °F | °C
As of 1:35 PM on Thursday 27 Nov 2014 (Local Time) from KAVQ Reporting Station
Clear Clear  
Wind Chill: 82°   Ceiling: Unl
Heat Index: 82°   Visibility: 10mi
Dew Point: 22°   Wind: 0mph
Humidity: 11%   Direction: NA
Pressure: 30.12"   Gusts: NA
Location:  32.48°N, 110.9°W
Report Text: KAVQ 272035Z AUTO 00000KT 10SM CLR 28/M06 A3012 RMK AO2 T02771057
Loading
Personal Weather Stations






























Interactive Weather Map New forecast layout! Learn more

10-Day Weather Forecast

Advertisements
Track Severe Weather on mobile